createdAt,value
2023-01-22T00:01:20.162Z,12.38
2023-01-22T00:03:49.213Z,12.65
2023-01-22T00:06:16.360Z,11.73
2023-01-22T00:08:43.485Z,9.77
2023-01-22T00:11:11.555Z,11.40
2023-01-22T00:13:38.278Z,9.63
2023-01-22T00:16:05.927Z,20.80
2023-01-22T00:18:33.301Z,16.65
2023-01-22T00:21:00.660Z,22.92
2023-01-22T00:23:27.334Z,37.78
2023-01-22T00:26:16.929Z,11.68
2023-01-22T00:28:45.472Z,8.52
2023-01-22T00:31:16.493Z,7.20
2023-01-22T00:33:46.969Z,6.78
2023-01-22T00:36:19.903Z,7.35
2023-01-22T00:38:48.023Z,7.07
2023-01-22T00:41:17.552Z,8.45
2023-01-22T00:43:44.500Z,7.55
2023-01-22T00:46:17.431Z,8.32
2023-01-22T00:48:49.578Z,9.68
2023-01-22T00:51:17.009Z,7.55
2023-01-22T00:53:44.818Z,7.65
2023-01-22T00:56:14.832Z,8.07
2023-01-22T00:58:42.859Z,8.18
2023-01-22T01:01:10.217Z,7.50
2023-01-22T01:03:37.731Z,9.60
2023-01-22T01:06:19.900Z,8.38
2023-01-22T01:08:49.032Z,7.63
2023-01-22T01:11:26.010Z,7.22
2023-01-22T01:13:56.063Z,8.02
2023-01-22T01:16:26.861Z,8.20
2023-01-22T01:18:57.121Z,7.50
2023-01-22T01:21:23.738Z,7.90
2023-01-22T01:23:50.506Z,8.88
2023-01-22T01:26:17.563Z,7.78
2023-01-22T01:28:45.703Z,8.25
2023-01-22T01:31:19.996Z,7.40
2023-01-22T01:36:40.491Z,7.43
2023-01-22T01:39:09.787Z,8.02
2023-01-22T01:41:36.497Z,7.65
2023-01-22T01:44:22.120Z,8.07
2023-01-22T01:46:55.340Z,8.05
2023-01-22T01:49:52.784Z,7.95
2023-01-22T01:52:21.153Z,8.02
2023-01-22T01:54:57.326Z,8.02
2023-01-22T01:57:31.180Z,6.95
2023-01-22T02:00:01.905Z,7.93
2023-01-22T02:02:28.655Z,7.90
2023-01-22T02:04:55.550Z,6.65
2023-01-22T02:07:22.533Z,7.40
2023-01-22T02:09:49.230Z,8.05
2023-01-22T02:12:16.322Z,8.60
2023-01-22T02:14:45.980Z,7.85
2023-01-22T02:17:22.352Z,8.82
2023-01-22T02:19:49.141Z,8.38
2023-01-22T02:22:29.875Z,7.75
2023-01-22T02:24:57.366Z,7.28
2023-01-22T02:27:27.755Z,7.70
2023-01-22T02:29:57.398Z,7.28
2023-01-22T02:32:24.137Z,7.13
2023-01-22T02:34:50.842Z,7.55
2023-01-22T02:37:18.065Z,7.57
2023-01-22T02:39:44.731Z,8.13
2023-01-22T02:42:11.413Z,7.93
2023-01-22T02:44:38.241Z,8.68
2023-01-22T02:47:12.643Z,7.28
2023-01-22T02:49:41.653Z,7.72
2023-01-22T02:52:08.327Z,8.93
2023-01-22T02:54:35.051Z,8.98
2023-01-22T02:57:01.882Z,11.95
2023-01-22T02:59:28.843Z,8.07
2023-01-22T03:01:57.085Z,7.82
2023-01-22T03:04:24.198Z,7.72
2023-01-22T03:06:50.801Z,9.75
2023-01-22T03:09:18.294Z,7.78
2023-01-22T03:11:48.223Z,7.82
2023-01-22T03:14:34.451Z,7.13
2023-01-22T03:17:20.225Z,8.05
2023-01-22T03:20:06.992Z,9.18
2023-01-22T03:22:33.683Z,8.85
2023-01-22T03:25:01.399Z,8.38
2023-01-22T03:27:31.558Z,7.30
2023-01-22T03:29:58.411Z,7.22
2023-01-22T03:32:25.960Z,7.18
2023-01-22T03:34:53.722Z,7.05
2023-01-22T03:37:20.657Z,7.30
2023-01-22T03:39:47.315Z,9.35
2023-01-22T03:42:13.947Z,7.65
2023-01-22T03:44:44.101Z,9.25
2023-01-22T03:47:10.758Z,8.00
2023-01-22T03:49:37.418Z,7.28
2023-01-22T03:52:04.161Z,7.47
2023-01-22T03:54:30.777Z,7.28
2023-01-22T03:57:00.535Z,6.65
2023-01-22T03:59:27.162Z,7.95
2023-01-22T04:01:53.902Z,7.93
2023-01-22T04:04:21.679Z,7.68
2023-01-22T04:06:48.580Z,7.80
2023-01-22T04:09:15.638Z,7.45
2023-01-22T04:11:42.345Z,7.32
2023-01-22T04:14:09.159Z,7.68
2023-01-22T04:16:35.992Z,8.57
2023-01-22T04:19:02.687Z,6.07
2023-01-22T04:21:29.392Z,6.38
2023-01-22T04:23:56.703Z,6.95
2023-01-22T04:26:23.556Z,6.20
2023-01-22T04:28:50.268Z,5.95
2023-01-22T04:31:17.251Z,7.72
2023-01-22T04:33:44.032Z,7.20
2023-01-22T04:36:10.814Z,6.20
2023-01-22T04:38:37.418Z,7.13
2023-01-22T04:41:04.046Z,7.53
2023-01-22T04:43:30.652Z,7.18
2023-01-22T04:45:57.430Z,6.60
2023-01-22T04:48:24.079Z,7.55
2023-01-22T04:50:50.769Z,7.15
2023-01-22T04:53:17.436Z,5.97
2023-01-22T04:55:45.028Z,7.70
2023-01-22T04:58:11.672Z,7.80
2023-01-22T05:00:38.436Z,7.75
2023-01-22T05:03:05.438Z,6.47
2023-01-22T05:05:33.730Z,7.43
2023-01-22T05:08:01.348Z,11.57
2023-01-22T05:10:31.194Z,7.38
2023-01-22T05:12:57.845Z,7.55
2023-01-22T05:15:30.919Z,6.93
2023-01-22T05:17:57.561Z,7.05
2023-01-22T05:20:27.775Z,7.68
2023-01-22T05:22:58.517Z,7.47
2023-01-22T05:25:26.097Z,7.65
2023-01-22T05:27:52.836Z,9.13
2023-01-22T05:30:20.308Z,7.72
2023-01-22T05:32:50.187Z,8.63
2023-01-22T05:35:17.147Z,9.20
2023-01-22T05:37:43.760Z,8.82
2023-01-22T05:40:11.787Z,7.90
2023-01-22T05:42:38.396Z,7.03
2023-01-22T05:45:07.605Z,7.43
2023-01-22T05:47:34.285Z,7.13
2023-01-22T05:50:00.856Z,7.68
2023-01-22T05:52:27.478Z,6.82
2023-01-22T05:54:54.090Z,6.82
2023-01-22T05:57:20.849Z,7.72
2023-01-22T05:59:47.642Z,7.30
2023-01-22T06:02:14.356Z,7.40
2023-01-22T06:04:41.055Z,7.45
2023-01-22T06:07:07.644Z,8.93
2023-01-22T06:09:34.290Z,6.40
2023-01-22T06:12:00.868Z,7.45
2023-01-22T06:14:27.557Z,8.52
2023-01-22T06:16:54.365Z,7.28
2023-01-22T06:19:23.615Z,6.78
2023-01-22T06:21:50.777Z,7.72
2023-01-22T06:24:17.485Z,11.00
2023-01-22T06:26:46.265Z,7.15
2023-01-22T06:29:13.074Z,7.15
2023-01-22T06:31:39.881Z,6.50
2023-01-22T06:34:09.866Z,8.05
2023-01-22T06:36:36.684Z,6.90
2023-01-22T06:39:03.737Z,9.75
2023-01-22T06:41:33.480Z,7.95
2023-01-22T06:44:00.240Z,7.38
2023-01-22T06:46:27.046Z,8.18
2023-01-22T06:48:53.610Z,10.88
2023-01-22T06:51:20.412Z,8.80
2023-01-22T06:53:47.086Z,9.60
2023-01-22T06:56:13.705Z,6.78
2023-01-22T06:58:43.025Z,8.88
2023-01-22T07:01:10.390Z,6.55
2023-01-22T07:03:37.245Z,8.32
2023-01-22T07:06:05.825Z,8.85
2023-01-22T07:08:34.016Z,8.25
2023-01-22T07:11:02.258Z,6.10
2023-01-22T07:13:29.149Z,6.97
2023-01-22T07:15:56.240Z,7.18
2023-01-22T07:18:24.374Z,8.95
2023-01-22T07:20:51.354Z,7.55
2023-01-22T07:23:18.503Z,8.38
2023-01-22T07:25:46.308Z,7.13
2023-01-22T07:28:15.379Z,7.03
2023-01-22T07:30:46.359Z,7.78
2023-01-22T07:33:15.080Z,8.65
2023-01-22T07:35:42.512Z,8.23
2023-01-22T07:38:09.904Z,7.03
2023-01-22T07:40:36.732Z,7.25
2023-01-22T07:43:10.542Z,6.97
2023-01-22T07:45:37.317Z,7.72
2023-01-22T07:48:10.831Z,7.40
2023-01-22T07:50:40.877Z,7.85
2023-01-22T08:53:56.826Z,10.30
2023-01-22T08:56:23.483Z,6.18
2023-01-22T08:58:51.768Z,8.15
2023-01-22T09:01:20.567Z,9.07
2023-01-22T09:03:48.710Z,8.80
2023-01-22T09:06:15.757Z,7.30
2023-01-22T10:17:30.485Z,7.20
2023-01-22T10:20:05.667Z,8.05
2023-01-22T10:22:35.051Z,9.13
2023-01-22T10:25:01.774Z,6.10
2023-01-22T10:27:39.875Z,9.50
2023-01-22T10:30:24.144Z,6.65
2023-01-22T10:33:16.597Z,11.40
2023-01-22T10:35:50.242Z,9.30
2023-01-22T10:38:31.289Z,7.88
2023-01-22T10:41:02.594Z,6.85
2023-01-22T10:43:42.028Z,9.93
2023-01-22T10:46:26.140Z,5.70
2023-01-22T10:49:08.207Z,6.13
2023-01-22T10:51:42.154Z,7.85
2023-01-22T10:54:43.744Z,8.18
2023-01-22T10:57:33.476Z,6.28
2023-01-22T11:00:51.431Z,5.32
2023-01-22T11:03:33.620Z,6.72
2023-01-22T11:06:18.412Z,7.10
2023-01-22T11:09:00.123Z,7.15
2023-01-22T11:11:41.111Z,7.15
2023-01-22T11:14:24.568Z,7.55
2023-01-22T11:32:40.867Z,8.18
2023-01-22T11:35:48.178Z,8.65
2023-01-22T11:38:35.178Z,7.65
2023-01-22T11:41:36.163Z,9.05
2023-01-22T11:44:53.967Z,5.97
2023-01-22T11:47:48.874Z,7.30
2023-01-22T11:50:43.480Z,9.63
2023-01-22T11:53:59.432Z,11.52
2023-01-22T11:57:08.497Z,7.05
2023-01-22T12:00:37.388Z,7.43
2023-01-22T12:04:18.143Z,6.93
2023-01-22T12:07:18.188Z,6.47
2023-01-22T12:10:35.980Z,6.55
2023-01-22T12:13:23.808Z,6.15
2023-01-22T12:16:21.993Z,8.35
2023-01-22T12:19:27.247Z,7.65
2023-01-22T12:22:45.435Z,6.18
2023-01-22T12:25:36.148Z,7.65
2023-01-22T12:28:14.811Z,7.15
2023-01-22T12:31:10.760Z,9.63
2023-01-22T12:33:46.600Z,7.10
2023-01-22T12:36:22.224Z,6.70
2023-01-22T12:38:56.277Z,8.93
2023-01-22T12:41:57.326Z,7.05
2023-01-22T12:44:54.484Z,6.80
2023-01-22T12:47:40.857Z,6.55
2023-01-22T12:50:24.572Z,6.88
2023-01-22T12:53:07.446Z,6.57
2023-01-22T12:55:43.242Z,6.20
2023-01-22T12:58:33.538Z,5.57
2023-01-22T13:01:12.104Z,8.02
2023-01-22T13:03:42.165Z,5.78
2023-01-22T13:06:41.172Z,5.40
2023-01-22T13:09:27.477Z,6.00
2023-01-22T13:11:54.181Z,6.07
2023-01-22T13:14:29.093Z,5.55
2023-01-22T13:17:03.419Z,4.95
2023-01-22T13:22:25.821Z,6.28
2023-01-22T13:24:59.163Z,7.38
2023-01-22T13:27:49.416Z,6.77
2023-01-22T13:30:28.570Z,7.38
2023-01-22T13:33:16.271Z,5.63
2023-01-22T13:35:49.317Z,8.05
2023-01-22T13:38:40.065Z,7.85
2023-01-22T13:44:35.815Z,6.80
2023-01-22T13:47:03.859Z,6.88
2023-01-22T13:49:43.044Z,6.40
2023-01-22T13:52:22.610Z,9.45
2023-01-22T13:55:05.345Z,6.70
2023-01-22T13:57:33.588Z,4.78
2023-01-22T14:00:04.603Z,5.55
2023-01-22T14:02:36.225Z,6.75
2023-01-22T14:05:03.860Z,6.15
2023-01-22T14:07:37.936Z,5.70
2023-01-22T14:10:25.123Z,5.80
2023-01-22T14:13:13.524Z,4.93
2023-01-22T14:15:42.378Z,9.05
2023-01-22T14:18:21.746Z,4.63
2023-01-22T14:20:51.426Z,4.60
2023-01-22T14:23:18.176Z,8.88
2023-01-22T14:25:50.464Z,6.63
2023-01-22T14:28:18.797Z,5.15
2023-01-22T14:30:46.319Z,4.95
2023-01-22T14:33:25.144Z,4.90
2023-01-22T14:35:53.985Z,4.72
2023-01-22T14:38:26.105Z,6.38
2023-01-22T14:40:53.989Z,4.25
2023-01-22T14:46:08.843Z,4.50
2023-01-22T15:02:20.725Z,3.40
2023-01-22T15:05:03.634Z,5.03
2023-01-22T15:07:30.378Z,6.60
2023-01-22T15:09:57.215Z,6.70
2023-01-22T15:12:31.508Z,8.82
2023-01-22T15:17:25.164Z,5.80
2023-01-22T15:19:52.224Z,3.75
2023-01-22T15:22:26.541Z,4.15
2023-01-22T15:27:23.763Z,3.88
2023-01-22T15:29:50.432Z,4.80
2023-01-22T15:32:17.398Z,3.60
2023-01-22T15:34:45.492Z,3.88
2023-01-22T15:37:14.798Z,4.15
2023-01-22T15:39:42.415Z,4.60
2023-01-22T15:42:09.371Z,4.22
2023-01-22T15:44:37.500Z,4.93
2023-01-22T15:47:10.810Z,6.15
2023-01-22T15:49:40.899Z,5.45
2023-01-22T15:52:10.063Z,4.00
2023-01-22T15:54:51.342Z,7.53
2023-01-22T15:57:18.074Z,6.10
2023-01-22T15:59:44.773Z,4.72
2023-01-22T16:02:12.183Z,4.55
2023-01-22T16:04:41.746Z,5.88
2023-01-22T16:07:08.358Z,4.30
2023-01-22T16:09:35.035Z,4.03
2023-01-22T16:12:01.729Z,4.20
2023-01-22T16:14:29.496Z,3.97
2023-01-22T16:16:56.313Z,7.43
2023-01-22T16:19:23.317Z,5.63
2023-01-22T16:21:53.778Z,3.65
2023-01-22T16:24:20.680Z,3.42
2023-01-22T16:26:47.336Z,4.38
2023-01-22T16:29:17.460Z,6.65
2023-01-22T16:31:44.458Z,7.13
2023-01-22T16:34:17.060Z,4.82
2023-01-22T16:36:46.674Z,3.22
2023-01-22T16:39:23.600Z,4.10
2023-01-22T16:41:52.652Z,4.10
2023-01-22T16:44:27.121Z,5.18
2023-01-22T16:46:59.795Z,5.28
2023-01-22T16:49:32.359Z,4.20
2023-01-22T16:52:21.547Z,3.97
2023-01-22T16:54:49.351Z,3.40
2023-01-22T16:57:16.455Z,5.03
2023-01-22T16:59:43.201Z,5.70
2023-01-22T17:02:16.944Z,4.93
2023-01-22T17:04:44.675Z,5.15
2023-01-22T17:07:27.452Z,3.97
2023-01-22T17:09:59.566Z,3.80
2023-01-22T17:12:26.491Z,4.15
2023-01-22T17:14:53.317Z,6.07
2023-01-22T17:17:19.979Z,3.88
2023-01-22T17:19:46.631Z,5.15
2023-01-22T17:22:13.482Z,4.25
2023-01-22T17:24:43.506Z,5.25
2023-01-22T17:27:16.019Z,6.35
2023-01-22T17:29:42.683Z,7.45
2023-01-22T17:32:09.427Z,4.68
2023-01-22T17:34:37.434Z,6.57
2023-01-22T17:37:09.408Z,5.60
2023-01-22T17:39:37.276Z,4.45
2023-01-22T17:42:04.459Z,4.95
2023-01-22T17:44:31.056Z,4.35
2023-01-22T17:46:59.974Z,3.95
2023-01-22T17:49:30.366Z,3.53
2023-01-22T17:51:57.048Z,5.32
2023-01-22T17:54:23.825Z,7.35
2023-01-22T17:56:53.040Z,4.97
2023-01-22T17:59:22.410Z,5.50
2023-01-22T18:31:37.079Z,4.45
2023-01-22T18:34:07.573Z,4.10
2023-01-22T18:44:48.077Z,4.70
2023-01-22T18:47:18.097Z,6.68
2023-01-22T19:06:17.614Z,3.50
2023-01-22T19:08:57.579Z,4.13
2023-01-22T19:11:25.632Z,4.40
2023-01-22T19:13:56.008Z,6.05
2023-01-22T19:16:25.348Z,6.28
2023-01-22T19:19:11.144Z,9.75
2023-01-22T19:24:29.193Z,5.25
2023-01-22T19:32:27.469Z,5.35
2023-01-22T19:51:16.420Z,3.78
2023-01-22T20:02:21.933Z,4.65
2023-01-22T20:04:48.935Z,6.20
2023-01-22T20:23:23.902Z,5.43
2023-01-22T20:25:51.443Z,5.53
2023-01-22T20:34:02.383Z,6.90
2023-01-22T20:36:29.428Z,6.63
2023-01-22T20:38:57.635Z,6.65
2023-01-22T20:46:53.152Z,5.55
2023-01-22T20:49:19.900Z,7.97
2023-01-22T21:35:08.328Z,6.47
2023-01-22T21:37:35.022Z,7.00
2023-01-22T21:40:01.736Z,6.38
2023-01-22T21:42:47.558Z,6.55
2023-01-22T21:45:33.062Z,5.75
2023-01-22T21:58:50.706Z,4.68
2023-01-22T22:09:27.620Z,6.05
2023-01-22T22:12:01.225Z,8.27
2023-01-22T22:14:28.917Z,5.97
2023-01-22T22:16:56.136Z,6.05
2023-01-22T23:06:16.902Z,6.20
2023-01-22T23:17:04.800Z,6.75
2023-01-22T23:19:31.445Z,6.32
2023-01-22T23:22:01.154Z,7.88
2023-01-22T23:24:28.649Z,7.30
2023-01-22T23:26:55.952Z,8.07
2023-01-22T23:29:26.608Z,5.57
2023-01-22T23:31:53.372Z,7.65
2023-01-22T23:34:23.046Z,6.43
2023-01-22T23:36:51.420Z,6.13
2023-01-22T23:39:22.140Z,5.88
2023-01-22T23:41:51.931Z,7.97
2023-01-22T23:44:18.793Z,8.52
2023-01-22T23:46:45.674Z,7.00
2023-01-22T23:49:12.443Z,7.75
2023-01-22T23:51:42.173Z,6.40
2023-01-22T23:54:09.391Z,6.93
2023-01-22T23:56:36.325Z,8.57
2023-01-22T23:59:03.838Z,5.72
